createdAt,value
2018-03-22T00:02:10.226Z,90.85
2018-03-22T00:04:37.826Z,90.72
2018-03-22T00:07:05.468Z,90.65
2018-03-22T00:09:33.052Z,90.66
2018-03-22T00:12:00.633Z,90.71
2018-03-22T00:14:28.271Z,90.70
2018-03-22T00:16:55.865Z,90.77
2018-03-22T00:19:23.511Z,90.55
2018-03-22T00:21:51.100Z,90.07
2018-03-22T00:24:18.718Z,90.22
2018-03-22T00:26:46.308Z,90.25
2018-03-22T00:29:13.895Z,90.28
2018-03-22T00:31:41.483Z,90.56
2018-03-22T00:34:09.071Z,90.48
2018-03-22T00:36:36.699Z,90.52
2018-03-22T00:39:04.451Z,90.61
2018-03-22T00:41:32.080Z,90.55
2018-03-22T00:43:59.674Z,90.43
2018-03-22T00:46:27.302Z,90.35
2018-03-22T00:48:54.888Z,90.34
2018-03-22T00:51:22.464Z,90.51
2018-03-22T00:53:50.098Z,90.58
2018-03-22T00:56:17.673Z,90.64
2018-03-22T00:58:45.306Z,90.63
2018-03-22T01:01:12.886Z,90.91
2018-03-22T01:03:40.471Z,91.20
2018-03-22T01:06:08.050Z,91.41
2018-03-22T01:08:35.618Z,91.57
2018-03-22T01:11:03.238Z,91.80
2018-03-22T01:13:30.817Z,92.01
2018-03-22T01:15:58.450Z,92.11
2018-03-22T01:18:26.097Z,92.26
2018-03-22T01:20:53.671Z,92.25
2018-03-22T01:23:21.248Z,92.12
2018-03-22T01:25:48.814Z,92.17
2018-03-22T01:28:16.390Z,92.17
2018-03-22T01:30:44.012Z,92.16
2018-03-22T01:33:11.595Z,92.29
2018-03-22T01:35:39.162Z,92.31
2018-03-22T01:38:06.854Z,92.25
2018-03-22T01:40:34.491Z,92.22
2018-03-22T01:43:02.056Z,92.11
2018-03-22T01:45:29.635Z,92.08
2018-03-22T01:47:57.208Z,92.05
2018-03-22T01:50:24.855Z,91.89
2018-03-22T01:53:04.262Z,91.73
2018-03-22T01:55:31.842Z,91.67
2018-03-22T01:57:59.510Z,91.44
2018-03-22T02:00:27.154Z,91.46
2018-03-22T02:02:54.795Z,91.34
2018-03-22T02:05:22.435Z,91.41
2018-03-22T02:07:50.055Z,91.32
2018-03-22T02:10:17.687Z,91.26
2018-03-22T02:12:45.329Z,91.18
2018-03-22T02:15:12.941Z,91.04
2018-03-22T02:17:40.516Z,90.94
2018-03-22T02:20:08.085Z,90.96
2018-03-22T02:22:35.729Z,90.76
2018-03-22T02:25:03.337Z,90.74
2018-03-22T02:27:31.003Z,90.91
2018-03-22T02:29:58.583Z,90.94
2018-03-22T02:32:26.156Z,90.87
2018-03-22T02:34:53.796Z,90.84
2018-03-22T02:37:21.431Z,90.83
2018-03-22T02:39:49.017Z,90.84
2018-03-22T02:42:16.589Z,90.77
2018-03-22T02:44:44.220Z,90.66
2018-03-22T02:47:11.861Z,90.41
2018-03-22T02:49:39.440Z,90.32
2018-03-22T02:52:07.018Z,90.23
2018-03-22T02:54:34.591Z,90.02
2018-03-22T02:57:02.232Z,90.12
2018-03-22T02:59:29.809Z,90.04
2018-03-22T03:01:57.382Z,89.96
2018-03-22T03:04:24.949Z,89.90
2018-03-22T03:06:52.613Z,89.78
2018-03-22T03:09:20.250Z,89.87
2018-03-22T03:11:47.871Z,90.00
2018-03-22T03:14:15.451Z,89.88
2018-03-22T03:16:43.029Z,90.04
2018-03-22T03:19:10.603Z,90.17
2018-03-22T03:21:38.182Z,90.09
2018-03-22T03:24:05.760Z,90.04
2018-03-22T03:26:33.333Z,89.93
2018-03-22T03:29:01.002Z,89.91
2018-03-22T03:31:28.563Z,89.81
2018-03-22T03:33:56.186Z,89.94
2018-03-22T03:36:23.772Z,89.96
2018-03-22T03:38:51.341Z,89.82
2018-03-22T03:41:18.969Z,89.82
2018-03-22T03:43:46.506Z,89.95
2018-03-22T03:46:14.197Z,89.89
2018-03-22T03:48:41.771Z,89.92
2018-03-22T03:51:09.342Z,89.74
2018-03-22T03:53:36.932Z,89.41
2018-03-22T03:56:04.502Z,89.57
2018-03-22T03:58:32.088Z,89.70
2018-03-22T04:00:59.722Z,89.77
2018-03-22T04:03:27.405Z,89.90
2018-03-22T04:05:54.976Z,89.82
2018-03-22T04:08:22.545Z,89.77
2018-03-22T04:10:50.179Z,89.90
2018-03-22T04:13:17.818Z,90.05
2018-03-22T04:15:45.402Z,90.06
2018-03-22T04:18:13.071Z,90.30
2018-03-22T04:20:40.657Z,90.46
2018-03-22T04:23:08.230Z,90.49
2018-03-22T04:25:35.867Z,90.38
2018-03-22T04:28:03.500Z,90.45
2018-03-22T04:30:31.132Z,90.42
2018-03-22T04:32:58.713Z,90.38
2018-03-22T04:35:26.283Z,90.49
2018-03-22T04:37:53.934Z,90.36
2018-03-22T04:40:21.502Z,90.38
2018-03-22T04:42:49.077Z,90.45
2018-03-22T04:45:16.647Z,90.28
2018-03-22T04:47:44.288Z,90.30
2018-03-22T04:50:11.866Z,90.47
2018-03-22T04:52:39.499Z,90.50
2018-03-22T04:55:07.073Z,90.43
2018-03-22T04:57:34.712Z,90.49
2018-03-22T05:00:02.285Z,90.61
2018-03-22T05:02:29.868Z,90.51
2018-03-22T05:04:57.453Z,90.37
2018-03-22T05:07:25.022Z,90.33
2018-03-22T05:09:52.663Z,90.46
2018-03-22T05:12:20.279Z,90.27
2018-03-22T05:14:47.908Z,90.28
2018-03-22T05:17:15.484Z,90.16
2018-03-22T05:19:43.052Z,90.12
2018-03-22T05:22:10.622Z,90.06
2018-03-22T05:24:38.254Z,89.80
2018-03-22T05:27:05.949Z,90.19
2018-03-22T05:29:33.522Z,90.19
2018-03-22T05:32:01.089Z,90.22
2018-03-22T05:34:28.728Z,90.07
2018-03-22T05:36:56.359Z,90.32
2018-03-22T05:39:24.005Z,90.37
2018-03-22T05:41:51.584Z,90.44
2018-03-22T05:44:19.195Z,90.25
2018-03-22T05:46:46.798Z,89.82
2018-03-22T05:49:14.361Z,89.84
2018-03-22T05:51:41.940Z,90.12
2018-03-22T05:54:09.511Z,90.54
2018-03-22T05:56:37.088Z,90.53
2018-03-22T05:59:04.661Z,90.08
2018-03-22T06:01:32.243Z,90.21
2018-03-22T06:03:59.880Z,89.82
2018-03-22T06:06:28.367Z,89.62
2018-03-22T06:08:55.997Z,89.64
2018-03-22T06:11:23.567Z,89.98
2018-03-22T06:13:51.207Z,90.25
2018-03-22T06:16:18.778Z,89.50
2018-03-22T06:18:46.355Z,89.93
2018-03-22T06:21:13.921Z,90.16
2018-03-22T06:23:41.509Z,89.68
2018-03-22T06:26:09.135Z,89.40
2018-03-22T06:28:36.771Z,89.37
2018-03-22T06:31:04.394Z,89.09
2018-03-22T06:33:31.958Z,89.26
2018-03-22T06:35:59.602Z,89.41
2018-03-22T06:38:27.168Z,89.40
2018-03-22T06:40:54.746Z,89.21
2018-03-22T06:43:22.309Z,88.81
2018-03-22T06:45:49.886Z,89.13
2018-03-22T06:48:17.515Z,88.75
2018-03-22T06:50:45.130Z,88.83
2018-03-22T06:53:12.699Z,88.97
2018-03-22T06:55:40.328Z,89.09
2018-03-22T06:58:07.909Z,89.33
2018-03-22T07:00:35.522Z,88.99
2018-03-22T07:03:03.158Z,89.12
2018-03-22T07:05:30.812Z,89.01
2018-03-22T07:07:58.496Z,89.40
2018-03-22T07:10:26.057Z,89.25
2018-03-22T07:12:53.687Z,89.12
2018-03-22T07:15:21.267Z,89.17
2018-03-22T07:17:48.848Z,89.25
2018-03-22T07:20:16.438Z,89.52
2018-03-22T07:22:44.003Z,89.69
2018-03-22T07:25:11.592Z,89.38
2018-03-22T07:27:39.171Z,89.13
2018-03-22T07:30:06.892Z,89.11
2018-03-22T07:32:34.555Z,89.30
2018-03-22T07:35:02.180Z,89.44
2018-03-22T07:37:29.760Z,89.35
2018-03-22T07:39:57.334Z,89.36
2018-03-22T07:42:24.905Z,89.27
2018-03-22T07:44:52.515Z,89.28
2018-03-22T07:47:20.146Z,89.13
2018-03-22T07:49:47.715Z,89.52
2018-03-22T07:52:15.279Z,89.47
2018-03-22T07:54:42.851Z,89.42
2018-03-22T07:57:10.446Z,89.85
2018-03-22T07:59:38.118Z,89.67
2018-03-22T08:02:05.747Z,89.74
2018-03-22T08:04:33.384Z,89.62
2018-03-22T08:07:00.960Z,89.45
2018-03-22T08:09:28.586Z,89.13
2018-03-22T08:11:56.158Z,89.78
2018-03-22T08:14:23.787Z,89.68
2018-03-22T08:16:51.365Z,89.48
2018-03-22T08:19:18.926Z,89.62
2018-03-22T08:21:46.558Z,89.57
2018-03-22T08:24:14.124Z,89.58
2018-03-22T08:26:41.692Z,90.05
2018-03-22T08:29:09.347Z,90.04
2018-03-22T08:31:36.978Z,90.04
2018-03-22T08:34:04.552Z,90.36
2018-03-22T08:36:32.178Z,90.34
2018-03-22T08:38:59.843Z,90.20
2018-03-22T08:41:27.409Z,90.27
2018-03-22T08:43:55.035Z,90.40
2018-03-22T08:46:22.607Z,90.38
2018-03-22T08:48:50.206Z,90.18
2018-03-22T08:51:17.776Z,90.49
2018-03-22T08:53:45.342Z,90.50
2018-03-22T08:56:13.023Z,90.72
2018-03-22T08:58:40.585Z,90.64
2018-03-22T09:01:08.206Z,90.28
2018-03-22T09:03:35.837Z,90.08
2018-03-22T09:06:03.412Z,90.10
2018-03-22T09:08:30.981Z,90.21
2018-03-22T09:10:58.607Z,90.25
2018-03-22T09:13:26.299Z,90.05
2018-03-22T09:15:53.891Z,89.83
2018-03-22T09:18:21.472Z,89.62
2018-03-22T09:20:49.049Z,89.79
2018-03-22T09:23:16.686Z,89.60
2018-03-22T09:25:44.230Z,89.94
2018-03-22T09:28:11.792Z,89.97
2018-03-22T09:30:39.371Z,89.90
2018-03-22T09:33:06.995Z,89.93
2018-03-22T09:35:34.571Z,90.16
2018-03-22T09:38:02.130Z,89.82
2018-03-22T09:40:29.807Z,89.77
2018-03-22T09:42:57.431Z,89.36
2018-03-22T09:45:25.063Z,89.60
2018-03-22T09:47:52.646Z,89.16
2018-03-22T09:50:20.210Z,88.86
2018-03-22T09:52:47.817Z,88.97
2018-03-22T09:55:15.382Z,88.66
2018-03-22T09:57:43.046Z,88.76
2018-03-22T10:00:10.675Z,89.05
2018-03-22T10:02:38.311Z,88.79
2018-03-22T10:05:05.942Z,89.02
2018-03-22T10:07:33.570Z,88.97
2018-03-22T10:10:01.138Z,89.39
2018-03-22T10:12:28.786Z,89.34
2018-03-22T10:14:56.478Z,89.19
2018-03-22T10:17:24.054Z,88.98
2018-03-22T10:19:51.619Z,88.91
2018-03-22T10:22:19.227Z,89.01
2018-03-22T10:24:46.786Z,89.49
2018-03-22T10:27:14.414Z,89.29
2018-03-22T10:29:41.985Z,89.05
2018-03-22T10:32:09.554Z,89.43
2018-03-22T10:34:37.114Z,89.10
2018-03-22T10:37:04.798Z,88.61
2018-03-22T10:39:32.422Z,88.48
2018-03-22T10:42:00.030Z,88.01
2018-03-22T10:44:27.594Z,88.19
2018-03-22T10:46:55.234Z,87.75
2018-03-22T10:49:22.867Z,87.97
2018-03-22T10:51:50.492Z,88.16
2018-03-22T10:54:18.071Z,88.08
2018-03-22T10:56:45.711Z,88.47
2018-03-22T10:59:13.349Z,88.43
2018-03-22T11:01:46.470Z,87.92
2018-03-22T11:04:14.090Z,87.78
2018-03-22T11:06:41.658Z,87.69
2018-03-22T11:09:09.223Z,87.53
2018-03-22T11:11:36.872Z,87.27
2018-03-22T11:14:04.511Z,87.32
2018-03-22T11:16:32.196Z,87.46
2018-03-22T11:18:59.840Z,87.55
2018-03-22T11:21:27.421Z,87.67
2018-03-22T11:23:55.047Z,87.93
2018-03-22T11:26:22.698Z,87.88
2018-03-22T11:28:50.283Z,87.94
2018-03-22T11:31:17.931Z,87.94
2018-03-22T11:33:45.508Z,87.45
2018-03-22T11:36:13.194Z,87.30
2018-03-22T11:38:40.766Z,87.25
2018-03-22T11:41:08.327Z,87.39
2018-03-22T11:43:35.951Z,86.87
2018-03-22T11:46:03.536Z,86.76
2018-03-22T11:48:31.175Z,86.58
2018-03-22T11:50:58.847Z,86.86
2018-03-22T11:53:26.411Z,86.62
2018-03-22T11:55:54.004Z,86.52
2018-03-22T11:58:21.585Z,86.53
2018-03-22T12:00:49.161Z,86.43
2018-03-22T12:03:16.807Z,86.22
2018-03-22T12:05:44.453Z,85.88
2018-03-22T12:08:12.028Z,85.91
2018-03-22T12:10:39.606Z,86.06
2018-03-22T12:13:07.190Z,86.29
2018-03-22T12:15:34.771Z,86.77
2018-03-22T12:18:02.351Z,86.64
2018-03-22T12:20:29.922Z,86.12
2018-03-22T12:22:57.495Z,86.12
2018-03-22T12:25:25.058Z,85.78
2018-03-22T12:27:52.691Z,86.38
2018-03-22T12:30:20.263Z,86.10
2018-03-22T12:32:47.896Z,85.87
2018-03-22T12:35:15.538Z,86.10
2018-03-22T12:37:43.916Z,86.06
2018-03-22T12:40:11.584Z,86.41
2018-03-22T12:42:39.208Z,85.66
2018-03-22T12:45:06.884Z,85.70
2018-03-22T12:47:34.462Z,85.09
2018-03-22T12:50:02.035Z,84.79
2018-03-22T12:52:29.613Z,84.78
2018-03-22T12:54:57.263Z,84.46
2018-03-22T12:57:24.840Z,84.15
2018-03-22T12:59:53.288Z,84.78
2018-03-22T13:02:20.854Z,84.68
2018-03-22T13:04:48.435Z,84.52
2018-03-22T13:07:16.004Z,84.93
2018-03-22T13:09:43.581Z,85.06
2018-03-22T13:12:11.167Z,84.74
2018-03-22T13:14:38.740Z,85.14
2018-03-22T13:17:06.377Z,85.25
2018-03-22T13:19:34.019Z,85.48
2018-03-22T13:22:01.660Z,85.45
2018-03-22T13:24:29.303Z,85.33
2018-03-22T13:26:56.866Z,85.30
2018-03-22T13:29:24.462Z,85.64
2018-03-22T13:31:52.111Z,85.25
2018-03-22T13:34:19.764Z,84.84
2018-03-22T13:36:47.376Z,85.26
2018-03-22T13:39:15.030Z,85.43
2018-03-22T13:41:42.685Z,85.26
2018-03-22T13:44:10.314Z,85.16
2018-03-22T13:46:37.947Z,84.91
2018-03-22T13:49:05.527Z,84.77
2018-03-22T13:51:33.110Z,84.85
2018-03-22T13:54:00.691Z,85.02
2018-03-22T13:56:28.260Z,85.00
2018-03-22T13:58:55.887Z,84.46
2018-03-22T14:01:23.466Z,84.90
2018-03-22T14:03:51.980Z,85.23
2018-03-22T14:06:19.614Z,85.10
2018-03-22T14:08:47.243Z,85.38
2018-03-22T14:11:14.885Z,85.27
2018-03-22T14:13:42.534Z,84.98
2018-03-22T14:16:10.176Z,84.95
2018-03-22T14:18:37.816Z,85.35
2018-03-22T14:21:05.386Z,85.88
2018-03-22T14:23:33.038Z,85.33
2018-03-22T14:26:00.680Z,85.38
2018-03-22T14:28:28.246Z,85.54
2018-03-22T14:30:55.823Z,85.72
2018-03-22T14:33:23.399Z,85.92
2018-03-22T14:35:50.962Z,86.07
2018-03-22T14:38:18.538Z,86.37
2018-03-22T14:40:46.158Z,85.68
2018-03-22T14:43:13.746Z,85.35
2018-03-22T14:45:41.327Z,85.85
2018-03-22T14:48:08.922Z,86.15
2018-03-22T14:50:36.562Z,85.85
2018-03-22T14:53:04.145Z,86.08
2018-03-22T14:55:31.810Z,85.67
2018-03-22T14:57:59.453Z,85.69
2018-03-22T15:00:27.083Z,86.13
2018-03-22T15:02:54.654Z,86.00
2018-03-22T15:05:22.318Z,86.36
2018-03-22T15:07:49.955Z,86.52
2018-03-22T15:10:17.592Z,86.50
2018-03-22T15:12:45.223Z,86.46
2018-03-22T15:15:12.812Z,86.38
2018-03-22T15:17:40.389Z,86.94
2018-03-22T15:20:07.998Z,86.64
2018-03-22T15:22:35.632Z,86.60
2018-03-22T15:25:03.266Z,86.65
2018-03-22T15:27:30.907Z,86.62
2018-03-22T15:29:58.531Z,86.81
2018-03-22T15:32:26.178Z,86.90
2018-03-22T15:34:53.738Z,87.22
2018-03-22T15:37:21.339Z,87.31
2018-03-22T15:39:48.907Z,87.28
2018-03-22T15:42:16.475Z,87.54
2018-03-22T15:44:44.090Z,87.18
2018-03-22T15:47:11.654Z,87.18
2018-03-22T15:49:39.221Z,87.23
2018-03-22T15:52:06.798Z,87.20
2018-03-22T15:54:34.377Z,87.64
2018-03-22T15:57:02.001Z,87.95
2018-03-22T15:59:29.567Z,87.83
2018-03-22T16:01:57.144Z,87.82
2018-03-22T16:04:24.724Z,87.57
2018-03-22T16:06:52.297Z,87.28
2018-03-22T16:09:19.989Z,87.98
2018-03-22T16:11:47.623Z,88.25
2018-03-22T16:14:15.272Z,87.74
2018-03-22T16:16:42.926Z,87.61
2018-03-22T16:19:10.498Z,87.68
2018-03-22T16:21:38.131Z,88.05
2018-03-22T16:24:05.775Z,88.23
2018-03-22T16:26:33.362Z,88.44
2018-03-22T16:29:00.955Z,88.52
2018-03-22T16:31:28.538Z,88.84
2018-03-22T16:33:56.223Z,88.70
2018-03-22T16:36:23.897Z,88.90
2018-03-22T16:38:51.491Z,89.17
2018-03-22T16:41:19.078Z,88.93
2018-03-22T16:43:46.669Z,88.69
2018-03-22T16:46:14.292Z,88.95
2018-03-22T16:48:41.923Z,88.81
2018-03-22T16:51:09.489Z,88.90
2018-03-22T16:53:37.076Z,88.98
2018-03-22T16:56:04.656Z,89.12
2018-03-22T16:58:32.281Z,89.21
2018-03-22T17:00:59.855Z,89.29
2018-03-22T17:03:27.416Z,89.20
2018-03-22T17:05:55.074Z,88.99
2018-03-22T17:08:22.759Z,88.92
2018-03-22T17:10:50.482Z,89.10
2018-03-22T17:13:18.060Z,88.81
2018-03-22T17:15:45.645Z,88.93
2018-03-22T17:18:13.227Z,88.88
2018-03-22T17:20:40.804Z,89.04
2018-03-22T17:23:08.438Z,88.96
2018-03-22T17:25:36.077Z,88.94
2018-03-22T17:28:03.646Z,88.98
2018-03-22T17:30:31.218Z,89.11
2018-03-22T17:32:58.804Z,89.21
2018-03-22T17:35:26.419Z,89.18
2018-03-22T17:37:53.981Z,88.83
2018-03-22T17:40:21.547Z,88.76
2018-03-22T17:42:49.179Z,88.88
2018-03-22T17:45:16.749Z,88.82
2018-03-22T17:47:44.394Z,88.54
2018-03-22T17:50:11.963Z,88.51
2018-03-22T17:52:39.565Z,88.39
2018-03-22T17:55:07.166Z,88.20
2018-03-22T17:57:34.773Z,88.50
2018-03-22T18:00:02.358Z,88.52
2018-03-22T18:02:29.983Z,88.53
2018-03-22T18:04:57.604Z,88.44
2018-03-22T18:07:25.170Z,88.73
2018-03-22T18:09:52.795Z,88.54
2018-03-22T18:12:20.463Z,88.53
2018-03-22T18:14:48.042Z,88.54
2018-03-22T18:17:15.703Z,88.18
2018-03-22T18:19:43.278Z,88.28
2018-03-22T18:22:11.015Z,88.12
2018-03-22T18:24:38.646Z,88.42
2018-03-22T18:27:06.275Z,88.30
2018-03-22T18:29:33.866Z,88.38
2018-03-22T18:32:01.431Z,88.30
2018-03-22T18:34:29.068Z,88.00
2018-03-22T18:36:56.697Z,88.19
2018-03-22T18:39:24.280Z,88.20
2018-03-22T18:41:51.867Z,88.72
2018-03-22T18:44:19.449Z,88.51
2018-03-22T18:46:47.091Z,88.71
2018-03-22T18:49:14.723Z,88.80
2018-03-22T18:51:42.424Z,88.58
2018-03-22T18:54:09.994Z,88.55
2018-03-22T18:56:37.564Z,88.71
2018-03-22T18:59:05.202Z,88.89
2018-03-22T19:01:32.770Z,89.12
2018-03-22T19:04:00.409Z,88.85
2018-03-22T19:06:28.007Z,88.62
2018-03-22T19:08:55.646Z,88.77
2018-03-22T19:11:23.280Z,88.66
2018-03-22T19:13:50.896Z,88.91
2018-03-22T19:16:18.519Z,88.98
2018-03-22T19:18:46.081Z,89.17
2018-03-22T19:21:13.659Z,89.02
2018-03-22T19:23:41.235Z,88.93
2018-03-22T19:26:08.888Z,89.13
2018-03-22T19:28:36.461Z,89.33
2018-03-22T19:31:04.039Z,89.46
2018-03-22T19:33:31.627Z,89.36
2018-03-22T19:35:59.190Z,89.29
2018-03-22T19:38:26.831Z,89.41
2018-03-22T19:40:54.454Z,88.93
2018-03-22T19:43:22.077Z,88.98
2018-03-22T19:45:49.639Z,89.26
2018-03-22T19:48:17.222Z,89.26
2018-03-22T19:50:44.873Z,89.33
2018-03-22T19:53:12.502Z,89.39
2018-03-22T19:55:40.090Z,89.45
2018-03-22T19:58:07.694Z,89.36
2018-03-22T20:00:35.335Z,89.36
2018-03-22T20:03:02.902Z,89.46
2018-03-22T20:05:30.525Z,89.88
2018-03-22T20:07:58.179Z,90.39
2018-03-22T20:10:25.799Z,90.43
2018-03-22T20:12:53.383Z,90.24
2018-03-22T20:15:20.952Z,90.54
2018-03-22T20:17:48.635Z,90.34
2018-03-22T20:20:16.262Z,90.65
2018-03-22T20:22:43.892Z,90.70
2018-03-22T20:25:11.535Z,90.31
2018-03-22T20:27:39.101Z,89.96
2018-03-22T20:30:06.735Z,89.87
2018-03-22T20:32:34.304Z,89.98
2018-03-22T20:35:02.016Z,90.03
2018-03-22T20:37:29.630Z,89.74
2018-03-22T20:39:57.207Z,89.89
2018-03-22T20:42:24.800Z,89.76
2018-03-22T20:44:52.362Z,89.71
2018-03-22T20:47:19.992Z,89.82
2018-03-22T20:49:47.554Z,89.72
2018-03-22T20:52:15.174Z,89.37
2018-03-22T20:54:42.798Z,89.41
2018-03-22T20:57:10.422Z,89.53
2018-03-22T20:59:38.063Z,89.99
2018-03-22T21:02:05.622Z,89.98
2018-03-22T21:04:33.255Z,90.13
2018-03-22T21:07:00.884Z,90.50
2018-03-22T21:09:28.598Z,90.49
2018-03-22T21:11:56.231Z,90.19
2018-03-22T21:14:23.794Z,90.18
2018-03-22T21:16:51.385Z,90.19
2018-03-22T21:19:18.955Z,90.51
2018-03-22T21:21:46.526Z,90.54
2018-03-22T21:24:14.084Z,90.24
2018-03-22T21:26:41.761Z,90.36
2018-03-22T21:29:09.326Z,90.16
2018-03-22T21:31:36.954Z,90.28
2018-03-22T21:34:04.583Z,90.25
2018-03-22T21:36:32.141Z,90.14
2018-03-22T21:38:59.742Z,90.27
2018-03-22T21:41:27.367Z,89.97
2018-03-22T21:44:06.811Z,89.84
2018-03-22T21:46:34.385Z,89.88
2018-03-22T21:49:02.011Z,89.93
2018-03-22T21:51:29.640Z,90.04
2018-03-22T21:53:57.174Z,89.87
2018-03-22T21:56:24.799Z,89.98
2018-03-22T21:58:52.362Z,89.74
2018-03-22T22:01:20.049Z,89.55
2018-03-22T22:03:47.621Z,89.52
2018-03-22T22:06:15.276Z,89.58
2018-03-22T22:08:42.860Z,89.41
2018-03-22T22:11:10.418Z,88.80
2018-03-22T22:13:37.987Z,88.66
2018-03-22T22:16:05.557Z,88.58
2018-03-22T22:18:33.170Z,88.94
2018-03-22T22:21:00.737Z,89.10
2018-03-22T22:23:28.362Z,88.69
2018-03-22T22:25:55.940Z,88.67
2018-03-22T22:28:23.578Z,88.91
2018-03-22T22:30:51.222Z,89.10
2018-03-22T22:33:18.794Z,88.88
2018-03-22T22:35:46.481Z,88.59
2018-03-22T22:38:14.047Z,88.63
2018-03-22T22:40:41.607Z,88.89
2018-03-22T22:43:09.190Z,89.19
2018-03-22T22:45:36.758Z,89.35
2018-03-22T22:48:04.378Z,89.49
2018-03-22T22:50:31.938Z,89.66
2018-03-22T22:52:59.691Z,90.14
2018-03-22T22:55:27.255Z,90.55
2018-03-22T22:57:54.814Z,91.08
2018-03-22T23:00:22.468Z,91.21
2018-03-22T23:02:50.040Z,91.22
2018-03-22T23:05:17.679Z,90.97
2018-03-22T23:07:45.262Z,90.99
2018-03-22T23:10:12.898Z,91.12
2018-03-22T23:12:40.531Z,91.09
2018-03-22T23:15:08.090Z,91.24
2018-03-22T23:17:35.659Z,91.20
2018-03-22T23:20:03.224Z,91.06
2018-03-22T23:22:30.802Z,91.00
2018-03-22T23:24:58.381Z,91.16
2018-03-22T23:27:26.010Z,91.11
2018-03-22T23:29:53.634Z,90.97
2018-03-22T23:32:21.296Z,91.12
2018-03-22T23:34:48.875Z,91.23
2018-03-22T23:37:16.439Z,91.07
2018-03-22T23:39:44.011Z,91.08
2018-03-22T23:42:11.647Z,91.03
2018-03-22T23:44:39.319Z,91.22
2018-03-22T23:47:06.947Z,91.06
2018-03-22T23:49:34.606Z,91.08
2018-03-22T23:52:02.240Z,91.15
2018-03-22T23:54:29.865Z,91.33
2018-03-22T23:56:57.434Z,91.34
2018-03-22T23:59:25.053Z,91.24
